sensor_id;sensor_type;location;lat;lon;timestamp;pressure;altitude;pressure_sealevel;temperature;humidity
6132;BME280;3097;42.692;23.278;2023-01-24T00:00:43;95946.28;;;5.79;96.25
6132;BME280;3097;42.692;23.278;2023-01-24T00:03:09;95940.38;;;5.79;96.34
6132;BME280;3097;42.692;23.278;2023-01-24T00:05:42;95940.84;;;5.82;96.37
6132;BME280;3097;42.692;23.278;2023-01-24T00:08:10;95934.19;;;5.65;97.03
6132;BME280;3097;42.692;23.278;2023-01-24T00:10:36;95940.03;;;5.82;96.57
6132;BME280;3097;42.692;23.278;2023-01-24T00:13:02;95939.91;;;5.75;96.86
6132;BME280;3097;42.692;23.278;2023-01-24T00:15:27;95945.34;;;5.72;96.98
6132;BME280;3097;42.692;23.278;2023-01-24T00:17:53;95931.16;;;5.62;97.11
6132;BME280;3097;42.692;23.278;2023-01-24T00:20:19;95908.84;;;5.39;97.88
6132;BME280;3097;42.692;23.278;2023-01-24T00:22:44;95946.03;;;5.50;98.45
6132;BME280;3097;42.692;23.278;2023-01-24T00:25:10;95940.78;;;5.52;97.93
6132;BME280;3097;42.692;23.278;2023-01-24T00:27:35;95961.06;;;5.53;98.22
6132;BME280;3097;42.692;23.278;2023-01-24T00:30:03;95954.97;;;5.62;97.50
6132;BME280;3097;42.692;23.278;2023-01-24T00:32:30;95966.50;;;5.50;97.87
6132;BME280;3097;42.692;23.278;2023-01-24T00:34:55;95969.38;;;5.55;98.07
6132;BME280;3097;42.692;23.278;2023-01-24T00:37:21;95964.09;;;5.57;97.73
6132;BME280;3097;42.692;23.278;2023-01-24T00:39:46;95957.56;;;5.46;98.08
6132;BME280;3097;42.692;23.278;2023-01-24T00:42:12;95952.78;;;5.35;98.11
6132;BME280;3097;42.692;23.278;2023-01-24T00:44:37;95969.25;;;5.40;98.31
6132;BME280;3097;42.692;23.278;2023-01-24T00:47:02;95945.47;;;5.16;98.78
6132;BME280;3097;42.692;23.278;2023-01-24T00:49:28;95966.88;;;5.23;100.00
6132;BME280;3097;42.692;23.278;2023-01-24T00:51:53;95961.44;;;5.26;99.63
6132;BME280;3097;42.692;23.278;2023-01-24T00:54:19;95968.78;;;5.21;99.89
6132;BME280;3097;42.692;23.278;2023-01-24T00:56:44;95947.72;;;5.11;99.44
6132;BME280;3097;42.692;23.278;2023-01-24T00:59:10;95972.13;;;5.29;99.36
6132;BME280;3097;42.692;23.278;2023-01-24T01:01:35;95932.84;;;4.98;99.46
6132;BME280;3097;42.692;23.278;2023-01-24T01:04:00;95966.88;;;5.23;99.50
6132;BME280;3097;42.692;23.278;2023-01-24T01:06:26;95973.88;;;5.29;99.86
6132;BME280;3097;42.692;23.278;2023-01-24T01:08:51;95969.88;;;5.34;98.67
6132;BME280;3097;42.692;23.278;2023-01-24T01:11:17;95962.22;;;5.34;98.52
6132;BME280;3097;42.692;23.278;2023-01-24T01:13:43;95961.25;;;5.19;98.79
6132;BME280;3097;42.692;23.278;2023-01-24T01:16:15;95969.72;;;5.36;98.67
6132;BME280;3097;42.692;23.278;2023-01-24T01:18:45;95970.22;;;5.39;97.57
6132;BME280;3097;42.692;23.278;2023-01-24T01:21:13;95974.19;;;5.42;97.76
6132;BME280;3097;42.692;23.278;2023-01-24T01:23:39;95973.56;;;5.32;98.07
6132;BME280;3097;42.692;23.278;2023-01-24T01:26:07;95975.00;;;5.26;97.89
6132;BME280;3097;42.692;23.278;2023-01-24T01:28:34;95968.91;;;5.35;97.93
6132;BME280;3097;42.692;23.278;2023-01-24T01:31:01;95966.69;;;5.32;97.69
6132;BME280;3097;42.692;23.278;2023-01-24T01:33:27;95973.72;;;5.22;98.10
6132;BME280;3097;42.692;23.278;2023-01-24T01:35:53;95971.16;;;5.30;98.42
6132;BME280;3097;42.692;23.278;2023-01-24T01:38:19;95972.28;;;5.44;97.68
6132;BME280;3097;42.692;23.278;2023-01-24T01:40:44;95966.34;;;5.43;97.25
6132;BME280;3097;42.692;23.278;2023-01-24T01:43:18;95967.66;;;5.48;96.34
6132;BME280;3097;42.692;23.278;2023-01-24T01:45:46;95974.19;;;5.42;96.83
6132;BME280;3097;42.692;23.278;2023-01-24T01:53:35;95972.91;;;5.38;96.66
6132;BME280;3097;42.692;23.278;2023-01-24T01:56:07;95941.00;;;5.10;97.85
6132;BME280;3097;42.692;23.278;2023-01-24T01:58:35;95971.31;;;5.37;96.77
6132;BME280;3097;42.692;23.278;2023-01-24T02:01:01;95968.91;;;5.35;96.62
6132;BME280;3097;42.692;23.278;2023-01-24T02:03:38;95965.25;;;5.38;96.96
6132;BME280;3097;42.692;23.278;2023-01-24T02:06:18;95968.47;;;5.16;97.60
6132;BME280;3097;42.692;23.278;2023-01-24T02:08:47;95964.47;;;5.29;97.53
6132;BME280;3097;42.692;23.278;2023-01-24T02:11:15;95962.06;;;5.36;96.85
6132;BME280;3097;42.692;23.278;2023-01-24T02:14:00;95949.28;;;5.20;97.29
6132;BME280;3097;42.692;23.278;2023-01-24T02:16:44;95954.88;;;5.07;98.26
6132;BME280;3097;42.692;23.278;2023-01-24T02:19:21;95923.28;;;4.84;98.59
6132;BME280;3097;42.692;23.278;2023-01-24T02:21:53;95944.81;;;5.05;97.88
6132;BME280;3097;42.692;23.278;2023-01-24T02:24:30;95960.50;;;5.02;98.44
6132;BME280;3097;42.692;23.278;2023-01-24T02:26:57;95963.50;;;4.90;98.84
6132;BME280;3097;42.692;23.278;2023-01-24T02:29:22;95958.09;;;4.93;99.10
6132;BME280;3097;42.692;23.278;2023-01-24T02:32:06;95919.28;;;4.81;98.99
6132;BME280;3097;42.692;23.278;2023-01-24T02:34:32;95971.50;;;5.11;98.42
6132;BME280;3097;42.692;23.278;2023-01-24T02:37:07;95965.91;;;5.24;97.53
6132;BME280;3097;42.692;23.278;2023-01-24T02:42:14;95963.19;;;5.33;96.38
6132;BME280;3097;42.692;23.278;2023-01-24T02:47:09;95968.47;;;5.16;97.41
6132;BME280;3097;42.692;23.278;2023-01-24T02:49:34;95960.50;;;5.11;97.20
6132;BME280;3097;42.692;23.278;2023-01-24T02:52:00;95963.66;;;5.13;97.42
6132;BME280;3097;42.692;23.278;2023-01-24T02:54:43;95962.25;;;5.18;97.26
6132;BME280;3097;42.692;23.278;2023-01-24T02:57:09;95957.59;;;5.14;97.21
6132;BME280;3097;42.692;23.278;2023-01-24T02:59:53;95961.44;;;5.01;98.22
6132;BME280;3097;42.692;23.278;2023-01-24T03:02:18;95953.94;;;5.00;97.63
6132;BME280;3097;42.692;23.278;2023-01-24T03:04:44;95956.63;;;4.90;98.33
6132;BME280;3097;42.692;23.278;2023-01-24T03:07:09;95961.28;;;4.79;98.86
6132;BME280;3097;42.692;23.278;2023-01-24T03:09:35;95948.66;;;4.77;99.39
6132;BME280;3097;42.692;23.278;2023-01-24T03:12:02;95960.78;;;4.83;99.13
6132;BME280;3097;42.692;23.278;2023-01-24T03:14:47;95950.72;;;4.57;99.39
6132;BME280;3097;42.692;23.278;2023-01-24T03:17:31;95961.25;;;4.62;99.97
6132;BME280;3097;42.692;23.278;2023-01-24T03:20:15;95958.50;;;4.48;100.00
6132;BME280;3097;42.692;23.278;2023-01-24T03:22:59;95956.28;;;4.61;99.98
6132;BME280;3097;42.692;23.278;2023-01-24T03:25:43;95956.16;;;4.79;99.74
6132;BME280;3097;42.692;23.278;2023-01-24T03:28:27;95954.84;;;4.66;99.45
6132;BME280;3097;42.692;23.278;2023-01-24T03:31:11;95959.19;;;4.90;98.75
6132;BME280;3097;42.692;23.278;2023-01-24T03:33:55;95951.88;;;4.87;98.06
6132;BME280;3097;42.692;23.278;2023-01-24T03:36:39;95958.22;;;4.83;98.80
6132;BME280;3097;42.692;23.278;2023-01-24T03:39:04;95955.84;;;4.82;97.63
6132;BME280;3097;42.692;23.278;2023-01-24T03:41:48;95952.16;;;4.84;97.36
6132;BME280;3097;42.692;23.278;2023-01-24T03:44:14;95907.31;;;4.57;98.06
6132;BME280;3097;42.692;23.278;2023-01-24T03:46:39;95953.63;;;4.87;97.03
6132;BME280;3097;42.692;23.278;2023-01-24T03:49:08;95960.13;;;4.81;96.76
6132;BME280;3097;42.692;23.278;2023-01-24T03:51:34;95949.75;;;4.66;97.97
6132;BME280;3097;42.692;23.278;2023-01-24T03:54:18;95946.91;;;4.70;98.57
6132;BME280;3097;42.692;23.278;2023-01-24T03:56:44;95950.72;;;4.65;98.40
6132;BME280;3097;42.692;23.278;2023-01-24T03:59:09;95941.28;;;4.50;98.55
6132;BME280;3097;42.692;23.278;2023-01-24T04:01:35;95937.78;;;4.43;99.31
6132;BME280;3097;42.692;23.278;2023-01-24T04:04:00;95945.75;;;4.48;99.51
6132;BME280;3097;42.692;23.278;2023-01-24T04:06:26;95939.97;;;4.38;99.69
6132;BME280;3097;42.692;23.278;2023-01-24T04:08:51;95940.94;;;4.37;99.72
6132;BME280;3097;42.692;23.278;2023-01-24T04:11:17;95935.53;;;4.40;99.70
6132;BME280;3097;42.692;23.278;2023-01-24T04:13:42;95915.00;;;4.07;100.00
6132;BME280;3097;42.692;23.278;2023-01-24T04:16:09;95905.44;;;4.01;100.00
6132;BME280;3097;42.692;23.278;2023-01-24T04:18:35;95938.53;;;4.27;100.00
6132;BME280;3097;42.692;23.278;2023-01-24T04:21:03;95923.66;;;4.14;100.00
6132;BME280;3097;42.692;23.278;2023-01-24T04:23:29;95945.41;;;4.35;100.00
6132;BME280;3097;42.692;23.278;2023-01-24T04:25:55;95954.66;;;4.27;100.00
6132;BME280;3097;42.692;23.278;2023-01-24T04:28:23;95945.34;;;4.10;100.00
6132;BME280;3097;42.692;23.278;2023-01-24T04:30:56;95932.75;;;4.17;100.00
6132;BME280;3097;42.692;23.278;2023-01-24T04:33:21;95934.19;;;4.11;100.00
6132;BME280;3097;42.692;23.278;2023-01-24T04:35:46;95941.34;;;4.16;100.00
6132;BME280;3097;42.692;23.278;2023-01-24T04:38:12;95949.97;;;4.15;100.00
6132;BME280;3097;42.692;23.278;2023-01-24T04:40:38;95917.03;;;3.87;100.00
6132;BME280;3097;42.692;23.278;2023-01-24T04:43:05;95943.41;;;4.04;100.00
6132;BME280;3097;42.692;23.278;2023-01-24T04:45:31;95949.00;;;4.16;100.00
6132;BME280;3097;42.692;23.278;2023-01-24T04:47:56;95958.91;;;4.19;100.00
6132;BME280;3097;42.692;23.278;2023-01-24T04:50:22;95964.19;;;4.25;100.00
6132;BME280;3097;42.692;23.278;2023-01-24T04:52:47;95964.16;;;4.17;100.00
6132;BME280;3097;42.692;23.278;2023-01-24T04:55:12;95954.28;;;4.22;100.00
6132;BME280;3097;42.692;23.278;2023-01-24T04:57:40;95924.63;;;4.13;99.65
6132;BME280;3097;42.692;23.278;2023-01-24T05:00:06;95959.91;;;4.34;99.26
6132;BME280;3097;42.692;23.278;2023-01-24T05:02:33;95961.00;;;4.23;99.96
6132;BME280;3097;42.692;23.278;2023-01-24T05:05:00;95955.53;;;4.10;99.43
6132;BME280;3097;42.692;23.278;2023-01-24T05:07:25;95957.13;;;4.11;100.00
6132;BME280;3097;42.692;23.278;2023-01-24T05:09:50;95966.09;;;4.23;99.70
6132;BME280;3097;42.692;23.278;2023-01-24T05:12:16;95963.03;;;4.12;100.00
6132;BME280;3097;42.692;23.278;2023-01-24T05:14:41;95969.59;;;4.22;99.69
6132;BME280;3097;42.692;23.278;2023-01-24T05:17:07;95962.38;;;4.02;100.00
6132;BME280;3097;42.692;23.278;2023-01-24T05:19:32;95969.78;;;4.21;100.00
6132;BME280;3097;42.692;23.278;2023-01-24T05:21:58;95982.38;;;4.22;99.26
6132;BME280;3097;42.692;23.278;2023-01-24T05:24:23;95980.09;;;4.11;99.64
6132;BME280;3097;42.692;23.278;2023-01-24T05:26:49;95993.78;;;4.02;100.00
6132;BME280;3097;42.692;23.278;2023-01-24T05:29:15;95998.88;;;4.02;100.00
6132;BME280;3097;42.692;23.278;2023-01-24T05:31:40;95993.78;;;4.02;99.98
6132;BME280;3097;42.692;23.278;2023-01-24T05:34:06;96011.66;;;4.10;100.00
6132;BME280;3097;42.692;23.278;2023-01-24T05:36:32;96014.38;;;4.09;100.00
6132;BME280;3097;42.692;23.278;2023-01-24T05:38:57;96003.31;;;4.00;100.00
6132;BME280;3097;42.692;23.278;2023-01-24T05:41:22;96004.97;;;4.09;100.00
6132;BME280;3097;42.692;23.278;2023-01-24T05:43:49;96023.03;;;4.24;100.00
6132;BME280;3097;42.692;23.278;2023-01-24T05:46:19;95999.88;;;4.09;99.24
6132;BME280;3097;42.692;23.278;2023-01-24T05:48:46;96003.38;;;4.08;99.65
6132;BME280;3097;42.692;23.278;2023-01-24T05:51:13;96016.47;;;4.13;99.27
6132;BME280;3097;42.692;23.278;2023-01-24T05:53:41;96026.38;;;4.16;99.86
6132;BME280;3097;42.692;23.278;2023-01-24T05:56:10;96013.63;;;4.24;99.22
6132;BME280;3097;42.692;23.278;2023-01-24T05:58:37;96035.03;;;4.32;99.14
6132;BME280;3097;42.692;23.278;2023-01-24T06:01:17;96013.16;;;4.21;98.09
6132;BME280;3097;42.692;23.278;2023-01-24T06:03:48;96034.38;;;4.29;98.45
6132;BME280;3097;42.692;23.278;2023-01-24T06:06:17;96042.31;;;4.18;98.96
6132;BME280;3097;42.692;23.278;2023-01-24T06:08:43;96044.84;;;4.10;99.45
6132;BME280;3097;42.692;23.278;2023-01-24T06:11:19;96046.34;;;4.29;98.46
6132;BME280;3097;42.692;23.278;2023-01-24T06:13:46;96044.78;;;4.28;98.30
6132;BME280;3097;42.692;23.278;2023-01-24T06:16:20;96040.03;;;4.07;98.75
6132;BME280;3097;42.692;23.278;2023-01-24T06:18:46;96053.63;;;4.16;99.06
6132;BME280;3097;42.692;23.278;2023-01-24T06:24:02;96055.34;;;4.07;99.83
6132;BME280;3097;42.692;23.278;2023-01-24T06:26:27;96051.59;;;4.19;99.36
6132;BME280;3097;42.692;23.278;2023-01-24T06:28:53;96053.84;;;4.31;99.43
6132;BME280;3097;42.692;23.278;2023-01-24T06:31:39;96066.19;;;4.09;100.00
6132;BME280;3097;42.692;23.278;2023-01-24T06:37:19;96073.09;;;3.91;100.00
6132;BME280;3097;42.692;23.278;2023-01-24T06:39:51;96071.41;;;3.74;100.00
6132;BME280;3097;42.692;23.278;2023-01-24T06:42:19;96068.41;;;3.53;100.00
6132;BME280;3097;42.692;23.278;2023-01-24T06:44:45;96081.41;;;3.67;100.00
6132;BME280;3097;42.692;23.278;2023-01-24T06:47:11;96084.59;;;3.69;100.00
6132;BME280;3097;42.692;23.278;2023-01-24T06:49:37;96074.19;;;3.63;100.00
6132;BME280;3097;42.692;23.278;2023-01-24T06:52:03;96089.31;;;3.82;100.00
6132;BME280;3097;42.692;23.278;2023-01-24T06:54:29;96086.72;;;3.74;100.00
6132;BME280;3097;42.692;23.278;2023-01-24T06:56:54;96094.59;;;3.63;100.00
6132;BME280;3097;42.692;23.278;2023-01-24T06:59:20;96089.75;;;3.52;100.00
6132;BME280;3097;42.692;23.278;2023-01-24T07:01:48;96083.56;;;3.36;100.00
6132;BME280;3097;42.692;23.278;2023-01-24T07:04:14;96077.34;;;3.39;100.00
6132;BME280;3097;42.692;23.278;2023-01-24T07:06:39;96096.94;;;3.38;100.00
6132;BME280;3097;42.692;23.278;2023-01-24T07:09:06;96090.63;;;3.42;100.00
6132;BME280;3097;42.692;23.278;2023-01-24T07:11:31;96090.47;;;3.26;100.00
6132;BME280;3097;42.692;23.278;2023-01-24T07:13:57;96100.00;;;3.24;100.00
6132;BME280;3097;42.692;23.278;2023-01-24T07:16:22;96078.53;;;3.09;100.00
6132;BME280;3097;42.692;23.278;2023-01-24T07:18:48;96101.59;;;3.25;100.00
6132;BME280;3097;42.692;23.278;2023-01-24T07:21:14;96101.25;;;3.38;100.00
6132;BME280;3097;42.692;23.278;2023-01-24T07:23:43;96107.81;;;3.23;100.00
6132;BME280;3097;42.692;23.278;2023-01-24T07:26:09;96107.50;;;3.26;100.00
6132;BME280;3097;42.692;23.278;2023-01-24T07:28:37;96059.19;;;2.98;100.00
6132;BME280;3097;42.692;23.278;2023-01-24T07:31:03;96101.31;;;3.10;100.00
6132;BME280;3097;42.692;23.278;2023-01-24T07:33:29;96109.63;;;3.30;100.00
6132;BME280;3097;42.692;23.278;2023-01-24T07:35:54;96115.16;;;3.26;100.00
6132;BME280;3097;42.692;23.278;2023-01-24T07:38:20;96118.19;;;3.11;100.00
6132;BME280;3097;42.692;23.278;2023-01-24T07:40:45;96094.78;;;3.08;100.00
6132;BME280;3097;42.692;23.278;2023-01-24T07:43:11;96109.75;;;3.11;100.00
6132;BME280;3097;42.692;23.278;2023-01-24T07:45:37;96119.38;;;3.35;100.00
6132;BME280;3097;42.692;23.278;2023-01-24T07:48:05;96106.31;;;3.02;100.00
6132;BME280;3097;42.692;23.278;2023-01-24T07:50:33;96124.13;;;3.30;100.00
6132;BME280;3097;42.692;23.278;2023-01-24T07:52:59;96127.25;;;3.41;100.00
6132;BME280;3097;42.692;23.278;2023-01-24T07:55:25;96131.97;;;3.36;100.00
6132;BME280;3097;42.692;23.278;2023-01-24T07:57:51;96138.16;;;3.52;100.00
6132;BME280;3097;42.692;23.278;2023-01-24T08:00:16;96142.69;;;3.58;100.00
6132;BME280;3097;42.692;23.278;2023-01-24T08:02:43;96124.47;;;3.35;100.00
6132;BME280;3097;42.692;23.278;2023-01-24T08:05:10;96090.19;;;3.11;100.00
6132;BME280;3097;42.692;23.278;2023-01-24T08:07:36;96145.34;;;3.38;100.00
6132;BME280;3097;42.692;23.278;2023-01-24T08:10:04;96138.59;;;3.29;100.00
6132;BME280;3097;42.692;23.278;2023-01-24T08:12:30;96145.75;;;3.43;100.00
6132;BME280;3097;42.692;23.278;2023-01-24T08:14:55;96132.06;;;3.44;100.00
6132;BME280;3097;42.692;23.278;2023-01-24T08:17:22;96140.94;;;3.40;100.00
6132;BME280;3097;42.692;23.278;2023-01-24T08:19:47;96138.03;;;3.35;100.00
6132;BME280;3097;42.692;23.278;2023-01-24T08:22:13;96142.03;;;3.38;100.00
6132;BME280;3097;42.692;23.278;2023-01-24T08:24:38;96124.41;;;3.27;100.00
6132;BME280;3097;42.692;23.278;2023-01-24T08:27:04;96141.66;;;3.33;100.00
6132;BME280;3097;42.692;23.278;2023-01-24T08:29:31;96142.69;;;3.22;100.00
6132;BME280;3097;42.692;23.278;2023-01-24T08:31:57;96138.44;;;3.13;100.00
6132;BME280;3097;42.692;23.278;2023-01-24T08:34:23;96147.19;;;3.28;100.00
6132;BME280;3097;42.692;23.278;2023-01-24T08:36:48;96132.09;;;3.17;100.00
6132;BME280;3097;42.692;23.278;2023-01-24T08:39:14;96148.50;;;3.32;100.00
6132;BME280;3097;42.692;23.278;2023-01-24T08:41:40;96144.06;;;3.34;100.00
6132;BME280;3097;42.692;23.278;2023-01-24T08:44:08;96155.84;;;3.35;100.00
6132;BME280;3097;42.692;23.278;2023-01-24T08:46:34;96146.69;;;3.42;100.00
6132;BME280;3097;42.692;23.278;2023-01-24T08:48:59;96128.25;;;3.31;100.00
6132;BME280;3097;42.692;23.278;2023-01-24T08:51:25;96154.28;;;3.52;100.00
6132;BME280;3097;42.692;23.278;2023-01-24T08:53:50;96153.88;;;3.65;100.00
6132;BME280;3097;42.692;23.278;2023-01-24T08:56:16;96152.50;;;3.70;100.00
6132;BME280;3097;42.692;23.278;2023-01-24T08:58:41;96157.44;;;3.72;100.00
6132;BME280;3097;42.692;23.278;2023-01-24T09:01:07;96151.63;;;3.79;100.00
6132;BME280;3097;42.692;23.278;2023-01-24T09:03:33;96158.53;;;3.69;100.00
6132;BME280;3097;42.692;23.278;2023-01-24T09:05:59;96124.09;;;3.65;100.00
6132;BME280;3097;42.692;23.278;2023-01-24T09:08:24;96148.78;;;4.08;100.00
6132;BME280;3097;42.692;23.278;2023-01-24T09:10:49;96153.94;;;4.16;100.00
6132;BME280;3097;42.692;23.278;2023-01-24T09:13:18;96150.09;;;4.12;100.00
6132;BME280;3097;42.692;23.278;2023-01-24T09:15:47;96150.75;;;4.14;100.00
6132;BME280;3097;42.692;23.278;2023-01-24T09:18:12;96148.09;;;4.24;100.00
6132;BME280;3097;42.692;23.278;2023-01-24T09:20:38;96150.69;;;4.32;100.00
6132;BME280;3097;42.692;23.278;2023-01-24T09:23:10;96149.69;;;4.25;100.00
6132;BME280;3097;42.692;23.278;2023-01-24T09:25:38;96150.03;;;4.30;99.06
6132;BME280;3097;42.692;23.278;2023-01-24T09:28:04;96148.50;;;4.11;99.48
6132;BME280;3097;42.692;23.278;2023-01-24T09:30:30;96110.53;;;3.65;99.59
6132;BME280;3097;42.692;23.278;2023-01-24T09:32:56;96156.19;;;3.94;99.91
6132;BME280;3097;42.692;23.278;2023-01-24T09:35:21;96141.19;;;4.16;99.65
6132;BME280;3097;42.692;23.278;2023-01-24T09:37:47;96140.53;;;4.14;99.29
6132;BME280;3097;42.692;23.278;2023-01-24T09:40:21;96149.25;;;4.29;99.00
6132;BME280;3097;42.692;23.278;2023-01-24T09:43:10;96141.84;;;4.18;99.36
6132;BME280;3097;42.692;23.278;2023-01-24T09:45:57;96144.84;;;4.40;98.33
6132;BME280;3097;42.692;23.278;2023-01-24T09:48:32;96145.44;;;4.34;98.38
6132;BME280;3097;42.692;23.278;2023-01-24T09:51:03;96118.66;;;4.38;99.97
6132;BME280;3097;42.692;23.278;2023-01-24T09:53:37;96146.09;;;4.70;98.41
6132;BME280;3097;42.692;23.278;2023-01-24T09:56:06;96146.13;;;4.44;97.36
6132;BME280;3097;42.692;23.278;2023-01-24T09:58:41;96134.34;;;4.17;98.61
6132;BME280;3097;42.692;23.278;2023-01-24T10:01:11;96122.66;;;4.14;98.73
6132;BME280;3097;42.692;23.278;2023-01-24T10:03:37;96124.41;;;4.06;97.73
6132;BME280;3097;42.692;23.278;2023-01-24T10:06:10;96107.59;;;3.77;99.14
6132;BME280;3097;42.692;23.278;2023-01-24T10:11:31;96130.25;;;3.98;99.89
6132;BME280;3097;42.692;23.278;2023-01-24T10:24:52;96122.41;;;4.00;100.00
6132;BME280;3097;42.692;23.278;2023-01-24T10:27:35;96117.22;;;4.09;99.86
6132;BME280;3097;42.692;23.278;2023-01-24T10:30:13;96083.81;;;3.95;99.37
6132;BME280;3097;42.692;23.278;2023-01-24T10:32:40;96117.31;;;4.00;100.00
6132;BME280;3097;42.692;23.278;2023-01-24T10:35:40;96117.75;;;4.13;100.00
6132;BME280;3097;42.692;23.278;2023-01-24T10:38:10;96105.63;;;4.15;99.15
6132;BME280;3097;42.692;23.278;2023-01-24T10:40:54;96109.09;;;4.14;97.98
6132;BME280;3097;42.692;23.278;2023-01-24T10:43:25;96082.00;;;3.87;97.44
6132;BME280;3097;42.692;23.278;2023-01-24T10:46:14;96106.78;;;3.95;99.22
6132;BME280;3097;42.692;23.278;2023-01-24T10:48:52;96077.19;;;3.76;98.80
6132;BME280;3097;42.692;23.278;2023-01-24T10:51:22;96098.72;;;3.81;99.37
6132;BME280;3097;42.692;23.278;2023-01-24T10:53:48;96107.44;;;3.97;100.00
6132;BME280;3097;42.692;23.278;2023-01-24T10:56:19;96100.91;;;4.02;99.79
6132;BME280;3097;42.692;23.278;2023-01-24T10:59:10;96107.91;;;4.00;98.88
6132;BME280;3097;42.692;23.278;2023-01-24T11:01:42;96103.94;;;3.98;98.60
6132;BME280;3097;42.692;23.278;2023-01-24T11:04:29;96059.63;;;3.73;99.06
6132;BME280;3097;42.692;23.278;2023-01-24T11:06:55;96096.00;;;4.09;98.02
6132;BME280;3097;42.692;23.278;2023-01-24T11:09:26;96071.75;;;3.79;98.71
6132;BME280;3097;42.692;23.278;2023-01-24T11:11:54;96095.22;;;3.82;98.89
6132;BME280;3097;42.692;23.278;2023-01-24T11:14:22;96092.72;;;3.91;98.88
6132;BME280;3097;42.692;23.278;2023-01-24T11:16:56;96094.78;;;3.87;99.40
6132;BME280;3097;42.692;23.278;2023-01-24T11:22:22;96086.56;;;3.75;99.76
6132;BME280;3097;42.692;23.278;2023-01-24T11:24:47;96088.31;;;3.75;99.35
6132;BME280;3097;42.692;23.278;2023-01-24T11:27:19;96087.56;;;3.82;99.29
6132;BME280;3097;42.692;23.278;2023-01-24T11:30:05;96089.59;;;3.79;99.70
6132;BME280;3097;42.692;23.278;2023-01-24T11:32:39;96078.41;;;3.72;99.78
6132;BME280;3097;42.692;23.278;2023-01-24T11:35:37;96080.69;;;3.57;99.78
6132;BME280;3097;42.692;23.278;2023-01-24T11:38:22;96088.00;;;3.78;100.00
6132;BME280;3097;42.692;23.278;2023-01-24T11:41:02;96078.50;;;3.88;98.46
6132;BME280;3097;42.692;23.278;2023-01-24T11:57:02;96081.47;;;3.75;99.07
6132;BME280;3097;42.692;23.278;2023-01-24T12:00:32;96074.59;;;3.50;99.56
6132;BME280;3097;42.692;23.278;2023-01-24T12:02:47;96080.09;;;3.63;100.00
6132;BME280;3097;42.692;23.278;2023-01-24T12:21:43;96074.91;;;3.73;98.28
6132;BME280;3097;42.692;23.278;2023-01-24T12:24:24;96068.47;;;3.61;99.19
6132;BME280;3097;42.692;23.278;2023-01-24T12:26:55;96074.25;;;3.71;98.08
6132;BME280;3097;42.692;23.278;2023-01-24T12:29:27;96073.38;;;3.62;98.13
6132;BME280;3097;42.692;23.278;2023-01-24T12:32:17;96074.19;;;3.63;98.14
6132;BME280;3097;42.692;23.278;2023-01-24T12:34:52;96066.59;;;3.71;98.92
6132;BME280;3097;42.692;23.278;2023-01-24T12:45:30;96069.59;;;3.92;98.08
6132;BME280;3097;42.692;23.278;2023-01-24T12:48:05;96070.13;;;3.96;97.03
6132;BME280;3097;42.692;23.278;2023-01-24T12:50:52;96076.81;;;3.97;97.28
6132;BME280;3097;42.692;23.278;2023-01-24T12:53:45;96078.66;;;4.12;96.96
6132;BME280;3097;42.692;23.278;2023-01-24T12:56:21;96081.31;;;4.03;96.79
6132;BME280;3097;42.692;23.278;2023-01-24T12:58:49;96066.91;;;3.94;95.98
6132;BME280;3097;42.692;23.278;2023-01-24T13:03:49;96077.91;;;3.94;96.39
6132;BME280;3097;42.692;23.278;2023-01-24T13:11:44;96078.81;;;3.85;96.51
6132;BME280;3097;42.692;23.278;2023-01-24T13:14:36;96074.38;;;3.87;97.47
6132;BME280;3097;42.692;23.278;2023-01-24T13:22:29;96075.03;;;3.89;95.95
6132;BME280;3097;42.692;23.278;2023-01-24T13:25:00;96071.63;;;3.80;95.76
6132;BME280;3097;42.692;23.278;2023-01-24T13:27:47;96070.53;;;3.83;95.05
6132;BME280;3097;42.692;23.278;2023-01-24T13:30:30;96072.22;;;3.74;95.40
6132;BME280;3097;42.692;23.278;2023-01-24T13:33:00;96069.59;;;3.66;95.36
6132;BME280;3097;42.692;23.278;2023-01-24T13:35:28;96037.09;;;3.42;96.00
6132;BME280;3097;42.692;23.278;2023-01-24T13:40:28;96080.94;;;3.89;96.92
6132;BME280;3097;42.692;23.278;2023-01-24T13:42:59;96084.22;;;4.08;94.53
6132;BME280;3097;42.692;23.278;2023-01-24T13:47:52;95984.00;;;3.64;92.53
6132;BME280;3097;42.692;23.278;2023-01-24T13:50:23;96087.78;;;4.23;92.42
6132;BME280;3097;42.692;23.278;2023-01-24T13:52:50;96067.38;;;4.23;92.54
6132;BME280;3097;42.692;23.278;2023-01-24T14:00:51;96092.75;;;4.24;91.32
6132;BME280;3097;42.692;23.278;2023-01-24T14:03:24;96094.16;;;4.19;91.29
6132;BME280;3097;42.692;23.278;2023-01-24T14:08:54;96094.81;;;3.95;91.54
6132;BME280;3097;42.692;23.278;2023-01-24T14:11:28;96065.00;;;3.96;91.62
6132;BME280;3097;42.692;23.278;2023-01-24T14:13:58;96096.34;;;4.14;91.25
6132;BME280;3097;42.692;23.278;2023-01-24T14:24:35;96097.31;;;3.87;93.37
6132;BME280;3097;42.692;23.278;2023-01-24T14:27:16;96098.59;;;3.91;92.78
6132;BME280;3097;42.692;23.278;2023-01-24T14:29:45;96096.72;;;3.93;91.16
6132;BME280;3097;42.692;23.278;2023-01-24T14:32:33;96098.47;;;3.93;91.45
6132;BME280;3097;42.692;23.278;2023-01-24T14:37:38;96082.63;;;3.81;93.03
6132;BME280;3097;42.692;23.278;2023-01-24T14:40:20;96104.22;;;3.95;92.32
6132;BME280;3097;42.692;23.278;2023-01-24T14:42:51;96082.00;;;3.87;91.70
6132;BME280;3097;42.692;23.278;2023-01-24T14:45:26;96111.06;;;3.94;91.85
6132;BME280;3097;42.692;23.278;2023-01-24T14:48:05;96114.19;;;4.06;91.55
6132;BME280;3097;42.692;23.278;2023-01-24T14:50:34;96088.59;;;3.72;90.70
6132;BME280;3097;42.692;23.278;2023-01-24T14:53:01;96111.47;;;3.81;91.63
6132;BME280;3097;42.692;23.278;2023-01-24T14:57:53;96109.19;;;3.96;91.29
6132;BME280;3097;42.692;23.278;2023-01-24T15:00:21;96107.13;;;3.74;91.89
6132;BME280;3097;42.692;23.278;2023-01-24T15:02:55;96112.03;;;3.93;91.67
6132;BME280;3097;42.692;23.278;2023-01-24T15:05:30;96118.25;;;3.91;92.10
6132;BME280;3097;42.692;23.278;2023-01-24T15:07:57;96110.41;;;3.92;92.32
6132;BME280;3097;42.692;23.278;2023-01-24T15:10:38;96114.34;;;4.04;92.57
6132;BME280;3097;42.692;23.278;2023-01-24T15:13:34;96112.13;;;4.09;92.82
6132;BME280;3097;42.692;23.278;2023-01-24T15:16:00;96110.72;;;4.15;91.30
6132;BME280;3097;42.692;23.278;2023-01-24T15:18:38;96086.28;;;4.04;91.51
6132;BME280;3097;42.692;23.278;2023-01-24T15:21:11;96117.78;;;4.21;91.44
6132;BME280;3097;42.692;23.278;2023-01-24T15:23:40;96101.91;;;4.09;90.93